sensor_id;sensor_type;location;lat;lon;timestamp;P1;durP1;ratioP1;P2;durP2;ratioP2
21330;SDS011;10824;51.632;4.950;2023-07-28T00:01:35;1.25;;;1.10;;
21330;SDS011;10824;51.632;4.950;2023-07-28T00:04:03;1.90;;;1.13;;
21330;SDS011;10824;51.632;4.950;2023-07-28T00:06:33;2.53;;;1.50;;
21330;SDS011;10824;51.632;4.950;2023-07-28T00:09:01;2.28;;;1.23;;
21330;SDS011;10824;51.632;4.950;2023-07-28T00:11:31;3.33;;;1.40;;
21330;SDS011;10824;51.632;4.950;2023-07-28T00:13:58;1.70;;;1.30;;
21330;SDS011;10824;51.632;4.950;2023-07-28T00:16:25;2.15;;;1.40;;
21330;SDS011;10824;51.632;4.950;2023-07-28T00:18:55;1.45;;;1.30;;
21330;SDS011;10824;51.632;4.950;2023-07-28T00:21:22;2.15;;;1.13;;
21330;SDS011;10824;51.632;4.950;2023-07-28T00:23:49;2.80;;;1.35;;
21330;SDS011;10824;51.632;4.950;2023-07-28T00:26:16;2.00;;;1.33;;
21330;SDS011;10824;51.632;4.950;2023-07-28T00:28:43;1.63;;;1.08;;
21330;SDS011;10824;51.632;4.950;2023-07-28T00:31:12;1.65;;;1.50;;
21330;SDS011;10824;51.632;4.950;2023-07-28T00:33:39;4.45;;;1.17;;
21330;SDS011;10824;51.632;4.950;2023-07-28T00:36:07;2.03;;;1.17;;
21330;SDS011;10824;51.632;4.950;2023-07-28T00:38:34;3.92;;;0.93;;
21330;SDS011;10824;51.632;4.950;2023-07-28T00:41:01;2.85;;;1.50;;
21330;SDS011;10824;51.632;4.950;2023-07-28T00:43:28;2.70;;;1.40;;
21330;SDS011;10824;51.632;4.950;2023-07-28T00:45:55;2.55;;;1.55;;
21330;SDS011;10824;51.632;4.950;2023-07-28T00:48:22;2.40;;;1.40;;
21330;SDS011;10824;51.632;4.950;2023-07-28T00:50:51;2.35;;;1.23;;
21330;SDS011;10824;51.632;4.950;2023-07-28T00:53:20;2.85;;;1.52;;
21330;SDS011;10824;51.632;4.950;2023-07-28T00:55:50;4.22;;;1.75;;
21330;SDS011;10824;51.632;4.950;2023-07-28T00:58:18;3.45;;;1.45;;
21330;SDS011;10824;51.632;4.950;2023-07-28T01:00:45;1.83;;;1.35;;
21330;SDS011;10824;51.632;4.950;2023-07-28T01:03:14;2.13;;;1.40;;
21330;SDS011;10824;51.632;4.950;2023-07-28T01:08:27;5.07;;;1.40;;
21330;SDS011;10824;51.632;4.950;2023-07-28T01:10:59;2.58;;;1.63;;
21330;SDS011;10824;51.632;4.950;2023-07-28T01:13:26;2.88;;;1.48;;
21330;SDS011;10824;51.632;4.950;2023-07-28T01:15:54;2.22;;;1.52;;
21330;SDS011;10824;51.632;4.950;2023-07-28T01:18:21;3.58;;;1.50;;
21330;SDS011;10824;51.632;4.950;2023-07-28T01:20:49;2.97;;;1.95;;
21330;SDS011;10824;51.632;4.950;2023-07-28T01:26:08;2.20;;;1.35;;
21330;SDS011;10824;51.632;4.950;2023-07-28T01:28:37;2.22;;;1.30;;
21330;SDS011;10824;51.632;4.950;2023-07-28T01:31:07;2.85;;;1.60;;
21330;SDS011;10824;51.632;4.950;2023-07-28T01:33:35;5.43;;;2.40;;
21330;SDS011;10824;51.632;4.950;2023-07-28T01:36:02;5.78;;;2.00;;
21330;SDS011;10824;51.632;4.950;2023-07-28T01:38:30;4.57;;;1.90;;
21330;SDS011;10824;51.632;4.950;2023-07-28T01:40:57;3.65;;;1.90;;
21330;SDS011;10824;51.632;4.950;2023-07-28T01:43:24;3.03;;;2.13;;
21330;SDS011;10824;51.632;4.950;2023-07-28T01:45:51;9.07;;;2.80;;
21330;SDS011;10824;51.632;4.950;2023-07-28T01:48:19;4.32;;;2.85;;
21330;SDS011;10824;51.632;4.950;2023-07-28T01:50:46;4.13;;;3.05;;
21330;SDS011;10824;51.632;4.950;2023-07-28T01:53:13;5.45;;;2.67;;
21330;SDS011;10824;51.632;4.950;2023-07-28T01:55:40;3.35;;;2.10;;
21330;SDS011;10824;51.632;4.950;2023-07-28T01:58:08;4.75;;;2.70;;
21330;SDS011;10824;51.632;4.950;2023-07-28T02:00:36;4.25;;;2.70;;
21330;SDS011;10824;51.632;4.950;2023-07-28T02:03:03;7.85;;;3.42;;
21330;SDS011;10824;51.632;4.950;2023-07-28T02:05:31;6.35;;;3.00;;
21330;SDS011;10824;51.632;4.950;2023-07-28T02:07:58;6.10;;;2.78;;
21330;SDS011;10824;51.632;4.950;2023-07-28T02:10:28;12.10;;;4.03;;
21330;SDS011;10824;51.632;4.950;2023-07-28T02:12:55;6.55;;;2.80;;
21330;SDS011;10824;51.632;4.950;2023-07-28T02:15:23;7.65;;;3.47;;
21330;SDS011;10824;51.632;4.950;2023-07-28T02:17:50;5.82;;;3.13;;
21330;SDS011;10824;51.632;4.950;2023-07-28T02:20:17;6.30;;;2.92;;
21330;SDS011;10824;51.632;4.950;2023-07-28T02:22:45;7.82;;;3.40;;
21330;SDS011;10824;51.632;4.950;2023-07-28T02:25:12;7.47;;;3.60;;
21330;SDS011;10824;51.632;4.950;2023-07-28T02:27:39;7.13;;;3.70;;
21330;SDS011;10824;51.632;4.950;2023-07-28T02:30:06;7.57;;;3.95;;
21330;SDS011;10824;51.632;4.950;2023-07-28T02:32:34;9.75;;;3.55;;
21330;SDS011;10824;51.632;4.950;2023-07-28T02:35:02;8.52;;;3.58;;
21330;SDS011;10824;51.632;4.950;2023-07-28T02:37:29;10.20;;;4.45;;
21330;SDS011;10824;51.632;4.950;2023-07-28T02:39:56;7.32;;;4.57;;
21330;SDS011;10824;51.632;4.950;2023-07-28T02:42:25;8.15;;;3.55;;
21330;SDS011;10824;51.632;4.950;2023-07-28T02:44:53;13.23;;;5.85;;
21330;SDS011;10824;51.632;4.950;2023-07-28T02:47:20;12.27;;;4.28;;
21330;SDS011;10824;51.632;4.950;2023-07-28T02:49:47;10.80;;;4.55;;
21330;SDS011;10824;51.632;4.950;2023-07-28T02:52:14;8.85;;;5.13;;
21330;SDS011;10824;51.632;4.950;2023-07-28T02:54:41;10.10;;;4.90;;
21330;SDS011;10824;51.632;4.950;2023-07-28T02:57:08;9.05;;;4.55;;
21330;SDS011;10824;51.632;4.950;2023-07-28T02:59:36;9.50;;;4.93;;
21330;SDS011;10824;51.632;4.950;2023-07-28T03:02:04;9.18;;;4.55;;
21330;SDS011;10824;51.632;4.950;2023-07-28T03:04:31;7.13;;;4.15;;
21330;SDS011;10824;51.632;4.950;2023-07-28T03:07:18;11.13;;;4.82;;
21330;SDS011;10824;51.632;4.950;2023-07-28T03:09:52;10.93;;;5.50;;
21330;SDS011;10824;51.632;4.950;2023-07-28T03:12:20;10.63;;;4.63;;
21330;SDS011;10824;51.632;4.950;2023-07-28T03:14:47;10.40;;;4.97;;
21330;SDS011;10824;51.632;4.950;2023-07-28T03:17:14;11.35;;;5.47;;
21330;SDS011;10824;51.632;4.950;2023-07-28T03:19:42;10.48;;;5.13;;
21330;SDS011;10824;51.632;4.950;2023-07-28T03:22:09;12.20;;;5.03;;
21330;SDS011;10824;51.632;4.950;2023-07-28T03:24:36;12.88;;;5.85;;
21330;SDS011;10824;51.632;4.950;2023-07-28T03:27:03;13.50;;;6.30;;
21330;SDS011;10824;51.632;4.950;2023-07-28T03:29:30;16.92;;;6.50;;
21330;SDS011;10824;51.632;4.950;2023-07-28T03:31:57;14.52;;;6.07;;
21330;SDS011;10824;51.632;4.950;2023-07-28T03:34:24;14.68;;;5.63;;
21330;SDS011;10824;51.632;4.950;2023-07-28T03:36:54;13.63;;;5.65;;
21330;SDS011;10824;51.632;4.950;2023-07-28T03:39:21;16.63;;;6.82;;
21330;SDS011;10824;51.632;4.950;2023-07-28T03:41:48;15.35;;;6.93;;
21330;SDS011;10824;51.632;4.950;2023-07-28T03:44:18;12.43;;;6.57;;
21330;SDS011;10824;51.632;4.950;2023-07-28T03:46:46;13.07;;;6.18;;
21330;SDS011;10824;51.632;4.950;2023-07-28T03:49:13;13.60;;;7.45;;
21330;SDS011;10824;51.632;4.950;2023-07-28T03:51:40;19.55;;;7.60;;
21330;SDS011;10824;51.632;4.950;2023-07-28T03:54:07;14.15;;;6.38;;
21330;SDS011;10824;51.632;4.950;2023-07-28T03:56:34;15.93;;;7.53;;
21330;SDS011;10824;51.632;4.950;2023-07-28T03:59:02;10.85;;;5.70;;
21330;SDS011;10824;51.632;4.950;2023-07-28T04:01:29;14.68;;;6.03;;
21330;SDS011;10824;51.632;4.950;2023-07-28T04:03:56;16.23;;;6.10;;
21330;SDS011;10824;51.632;4.950;2023-07-28T04:06:39;13.05;;;5.95;;
21330;SDS011;10824;51.632;4.950;2023-07-28T04:09:11;12.32;;;5.43;;
21330;SDS011;10824;51.632;4.950;2023-07-28T04:11:40;14.55;;;6.22;;
21330;SDS011;10824;51.632;4.950;2023-07-28T04:14:07;12.98;;;5.35;;
21330;SDS011;10824;51.632;4.950;2023-07-28T04:16:34;12.48;;;6.25;;
21330;SDS011;10824;51.632;4.950;2023-07-28T04:19:02;12.25;;;5.75;;
21330;SDS011;10824;51.632;4.950;2023-07-28T04:21:29;10.55;;;4.82;;
21330;SDS011;10824;51.632;4.950;2023-07-28T04:23:56;13.63;;;5.82;;
21330;SDS011;10824;51.632;4.950;2023-07-28T04:26:24;10.85;;;5.63;;
21330;SDS011;10824;51.632;4.950;2023-07-28T04:28:59;13.55;;;5.97;;
21330;SDS011;10824;51.632;4.950;2023-07-28T04:31:27;14.80;;;6.25;;
21330;SDS011;10824;51.632;4.950;2023-07-28T04:34:02;16.35;;;6.45;;
21330;SDS011;10824;51.632;4.950;2023-07-28T04:37:05;10.93;;;5.30;;
21330;SDS011;10824;51.632;4.950;2023-07-28T04:39:43;11.65;;;5.72;;
21330;SDS011;10824;51.632;4.950;2023-07-28T04:42:13;11.00;;;5.32;;
21330;SDS011;10824;51.632;4.950;2023-07-28T04:44:44;12.00;;;4.93;;
21330;SDS011;10824;51.632;4.950;2023-07-28T04:47:13;9.07;;;4.63;;
21330;SDS011;10824;51.632;4.950;2023-07-28T04:49:41;10.13;;;5.40;;
21330;SDS011;10824;51.632;4.950;2023-07-28T04:52:08;14.52;;;6.25;;
21330;SDS011;10824;51.632;4.950;2023-07-28T04:54:46;9.48;;;4.03;;
21330;SDS011;10824;51.632;4.950;2023-07-28T04:57:13;8.52;;;4.60;;
21330;SDS011;10824;51.632;4.950;2023-07-28T04:59:42;14.20;;;6.30;;
21330;SDS011;10824;51.632;4.950;2023-07-28T05:02:09;13.75;;;4.55;;
21330;SDS011;10824;51.632;4.950;2023-07-28T05:04:36;13.05;;;5.10;;
21330;SDS011;10824;51.632;4.950;2023-07-28T05:07:04;10.55;;;5.25;;
21330;SDS011;10824;51.632;4.950;2023-07-28T05:09:31;12.85;;;4.95;;
21330;SDS011;10824;51.632;4.950;2023-07-28T05:11:58;12.32;;;5.85;;
21330;SDS011;10824;51.632;4.950;2023-07-28T05:14:25;14.98;;;6.32;;
21330;SDS011;10824;51.632;4.950;2023-07-28T05:16:54;13.25;;;5.60;;
21330;SDS011;10824;51.632;4.950;2023-07-28T05:19:32;11.40;;;5.22;;
21330;SDS011;10824;51.632;4.950;2023-07-28T05:22:02;9.20;;;4.75;;
21330;SDS011;10824;51.632;4.950;2023-07-28T05:24:51;11.35;;;5.60;;
21330;SDS011;10824;51.632;4.950;2023-07-28T05:27:24;15.38;;;6.35;;
21330;SDS011;10824;51.632;4.950;2023-07-28T05:29:53;11.73;;;5.65;;
21330;SDS011;10824;51.632;4.950;2023-07-28T05:32:20;16.27;;;7.18;;
21330;SDS011;10824;51.632;4.950;2023-07-28T05:35:08;13.50;;;6.80;;
21330;SDS011;10824;51.632;4.950;2023-07-28T05:37:36;21.48;;;6.43;;
21330;SDS011;10824;51.632;4.950;2023-07-28T05:40:04;16.38;;;6.13;;
21330;SDS011;10824;51.632;4.950;2023-07-28T05:42:33;13.43;;;6.15;;
21330;SDS011;10824;51.632;4.950;2023-07-28T05:45:01;14.10;;;5.32;;
21330;SDS011;10824;51.632;4.950;2023-07-28T05:47:28;12.60;;;6.10;;
21330;SDS011;10824;51.632;4.950;2023-07-28T05:50:08;11.27;;;5.43;;
21330;SDS011;10824;51.632;4.950;2023-07-28T05:52:35;16.40;;;6.35;;
21330;SDS011;10824;51.632;4.950;2023-07-28T05:55:02;12.18;;;6.22;;
21330;SDS011;10824;51.632;4.950;2023-07-28T05:57:30;16.23;;;7.05;;
21330;SDS011;10824;51.632;4.950;2023-07-28T06:00:00;14.88;;;7.35;;
21330;SDS011;10824;51.632;4.950;2023-07-28T06:02:27;12.00;;;5.38;;
21330;SDS011;10824;51.632;4.950;2023-07-28T06:04:55;10.25;;;5.18;;
21330;SDS011;10824;51.632;4.950;2023-07-28T06:07:22;14.70;;;5.75;;
21330;SDS011;10824;51.632;4.950;2023-07-28T06:09:50;19.85;;;6.43;;
21330;SDS011;10824;51.632;4.950;2023-07-28T06:12:17;13.25;;;5.43;;
21330;SDS011;10824;51.632;4.950;2023-07-28T06:14:44;15.20;;;6.18;;
21330;SDS011;10824;51.632;4.950;2023-07-28T06:17:11;11.52;;;5.05;;
21330;SDS011;10824;51.632;4.950;2023-07-28T06:19:39;12.07;;;5.43;;
21330;SDS011;10824;51.632;4.950;2023-07-28T06:22:06;12.38;;;5.18;;
21330;SDS011;10824;51.632;4.950;2023-07-28T06:24:39;11.90;;;5.53;;
21330;SDS011;10824;51.632;4.950;2023-07-28T06:27:06;13.60;;;6.20;;
21330;SDS011;10824;51.632;4.950;2023-07-28T06:29:37;14.02;;;5.90;;
21330;SDS011;10824;51.632;4.950;2023-07-28T06:32:04;12.85;;;6.10;;
21330;SDS011;10824;51.632;4.950;2023-07-28T06:34:32;13.38;;;5.97;;
21330;SDS011;10824;51.632;4.950;2023-07-28T06:36:59;16.02;;;5.40;;
21330;SDS011;10824;51.632;4.950;2023-07-28T06:39:26;19.25;;;7.45;;
21330;SDS011;10824;51.632;4.950;2023-07-28T06:41:53;15.20;;;5.88;;
21330;SDS011;10824;51.632;4.950;2023-07-28T06:44:21;29.90;;;8.20;;
21330;SDS011;10824;51.632;4.950;2023-07-28T06:46:48;15.25;;;6.75;;
21330;SDS011;10824;51.632;4.950;2023-07-28T06:49:16;15.88;;;6.50;;
21330;SDS011;10824;51.632;4.950;2023-07-28T06:51:43;21.48;;;6.93;;
21330;SDS011;10824;51.632;4.950;2023-07-28T06:54:10;17.75;;;7.28;;
21330;SDS011;10824;51.632;4.950;2023-07-28T06:56:39;18.73;;;7.03;;
21330;SDS011;10824;51.632;4.950;2023-07-28T06:59:07;17.25;;;7.20;;
21330;SDS011;10824;51.632;4.950;2023-07-28T07:01:43;18.95;;;7.32;;
21330;SDS011;10824;51.632;4.950;2023-07-28T07:04:10;16.67;;;7.32;;
21330;SDS011;10824;51.632;4.950;2023-07-28T07:06:37;12.07;;;6.30;;
21330;SDS011;10824;51.632;4.950;2023-07-28T07:09:05;13.13;;;6.63;;
21330;SDS011;10824;51.632;4.950;2023-07-28T07:11:33;18.98;;;7.55;;
21330;SDS011;10824;51.632;4.950;2023-07-28T07:14:00;12.85;;;5.80;;
21330;SDS011;10824;51.632;4.950;2023-07-28T07:16:27;14.00;;;6.85;;
21330;SDS011;10824;51.632;4.950;2023-07-28T07:18:55;12.50;;;7.10;;
21330;SDS011;10824;51.632;4.950;2023-07-28T07:21:22;19.45;;;7.50;;
21330;SDS011;10824;51.632;4.950;2023-07-28T07:23:49;18.50;;;6.68;;
21330;SDS011;10824;51.632;4.950;2023-07-28T07:26:24;12.95;;;6.15;;
21330;SDS011;10824;51.632;4.950;2023-07-28T07:28:52;12.70;;;6.60;;
21330;SDS011;10824;51.632;4.950;2023-07-28T07:31:19;15.63;;;7.05;;
21330;SDS011;10824;51.632;4.950;2023-07-28T07:33:47;10.38;;;5.72;;
21330;SDS011;10824;51.632;4.950;2023-07-28T07:36:14;14.27;;;7.32;;
21330;SDS011;10824;51.632;4.950;2023-07-28T07:38:42;14.35;;;6.35;;
21330;SDS011;10824;51.632;4.950;2023-07-28T07:41:13;12.68;;;5.22;;
21330;SDS011;10824;51.632;4.950;2023-07-28T07:43:52;11.52;;;5.53;;
21330;SDS011;10824;51.632;4.950;2023-07-28T07:46:20;10.93;;;5.07;;
21330;SDS011;10824;51.632;4.950;2023-07-28T07:48:47;10.00;;;4.68;;
21330;SDS011;10824;51.632;4.950;2023-07-28T07:51:14;8.20;;;4.50;;
21330;SDS011;10824;51.632;4.950;2023-07-28T07:53:44;12.00;;;4.22;;
21330;SDS011;10824;51.632;4.950;2023-07-28T07:56:11;10.00;;;4.55;;
21330;SDS011;10824;51.632;4.950;2023-07-28T07:58:38;7.63;;;4.18;;
21330;SDS011;10824;51.632;4.950;2023-07-28T08:01:05;6.82;;;3.45;;
21330;SDS011;10824;51.632;4.950;2023-07-28T08:03:32;9.32;;;3.70;;
21330;SDS011;10824;51.632;4.950;2023-07-28T08:06:00;7.80;;;3.90;;
21330;SDS011;10824;51.632;4.950;2023-07-28T08:08:27;10.00;;;4.25;;
21330;SDS011;10824;51.632;4.950;2023-07-28T08:10:54;7.50;;;3.50;;
21330;SDS011;10824;51.632;4.950;2023-07-28T08:13:21;13.18;;;3.92;;
21330;SDS011;10824;51.632;4.950;2023-07-28T08:15:49;9.63;;;4.75;;
21330;SDS011;10824;51.632;4.950;2023-07-28T08:18:16;6.45;;;3.20;;
21330;SDS011;10824;51.632;4.950;2023-07-28T08:20:43;6.63;;;3.03;;
21330;SDS011;10824;51.632;4.950;2023-07-28T08:23:10;8.07;;;3.25;;
21330;SDS011;10824;51.632;4.950;2023-07-28T08:25:39;7.05;;;3.53;;
21330;SDS011;10824;51.632;4.950;2023-07-28T08:28:07;4.85;;;3.35;;
21330;SDS011;10824;51.632;4.950;2023-07-28T08:30:34;5.82;;;2.78;;
21330;SDS011;10824;51.632;4.950;2023-07-28T08:33:01;4.10;;;2.42;;
21330;SDS011;10824;51.632;4.950;2023-07-28T08:35:30;10.68;;;3.97;;
21330;SDS011;10824;51.632;4.950;2023-07-28T08:37:57;5.25;;;3.35;;
21330;SDS011;10824;51.632;4.950;2023-07-28T08:40:25;8.60;;;2.70;;
21330;SDS011;10824;51.632;4.950;2023-07-28T08:42:53;10.77;;;3.45;;
21330;SDS011;10824;51.632;4.950;2023-07-28T08:45:21;6.60;;;2.60;;
21330;SDS011;10824;51.632;4.950;2023-07-28T08:47:50;4.53;;;2.42;;
21330;SDS011;10824;51.632;4.950;2023-07-28T08:50:17;8.15;;;3.83;;
21330;SDS011;10824;51.632;4.950;2023-07-28T08:52:44;8.50;;;2.92;;
21330;SDS011;10824;51.632;4.950;2023-07-28T08:55:12;6.53;;;2.85;;
21330;SDS011;10824;51.632;4.950;2023-07-28T08:57:39;8.15;;;3.78;;
21330;SDS011;10824;51.632;4.950;2023-07-28T09:00:10;5.90;;;2.95;;
21330;SDS011;10824;51.632;4.950;2023-07-28T09:02:43;5.80;;;2.90;;
21330;SDS011;10824;51.632;4.950;2023-07-28T09:05:17;4.70;;;2.90;;
21330;SDS011;10824;51.632;4.950;2023-07-28T09:07:46;5.90;;;3.10;;
21330;SDS011;10824;51.632;4.950;2023-07-28T09:10:14;5.53;;;3.00;;
21330;SDS011;10824;51.632;4.950;2023-07-28T09:12:45;4.82;;;2.55;;
21330;SDS011;10824;51.632;4.950;2023-07-28T09:15:14;6.18;;;2.72;;
21330;SDS011;10824;51.632;4.950;2023-07-28T09:17:43;5.13;;;2.45;;
21330;SDS011;10824;51.632;4.950;2023-07-28T09:20:15;5.85;;;3.15;;
21330;SDS011;10824;51.632;4.950;2023-07-28T09:22:43;7.10;;;2.72;;
21330;SDS011;10824;51.632;4.950;2023-07-28T09:25:13;7.68;;;2.75;;
21330;SDS011;10824;51.632;4.950;2023-07-28T09:27:49;5.38;;;3.08;;
21330;SDS011;10824;51.632;4.950;2023-07-28T09:30:20;5.10;;;2.40;;
21330;SDS011;10824;51.632;4.950;2023-07-28T09:32:49;4.35;;;2.45;;
21330;SDS011;10824;51.632;4.950;2023-07-28T09:35:17;5.68;;;2.25;;
21330;SDS011;10824;51.632;4.950;2023-07-28T09:37:49;5.68;;;2.03;;
21330;SDS011;10824;51.632;4.950;2023-07-28T09:40:22;7.55;;;2.75;;
21330;SDS011;10824;51.632;4.950;2023-07-28T09:42:49;4.23;;;2.57;;
21330;SDS011;10824;51.632;4.950;2023-07-28T09:45:21;5.60;;;2.63;;
21330;SDS011;10824;51.632;4.950;2023-07-28T09:48:02;5.23;;;2.17;;
21330;SDS011;10824;51.632;4.950;2023-07-28T09:50:35;5.55;;;2.90;;
21330;SDS011;10824;51.632;4.950;2023-07-28T09:53:04;5.15;;;2.70;;
21330;SDS011;10824;51.632;4.950;2023-07-28T09:55:35;4.50;;;2.45;;
21330;SDS011;10824;51.632;4.950;2023-07-28T09:58:06;5.00;;;2.30;;
21330;SDS011;10824;51.632;4.950;2023-07-28T10:00:39;5.25;;;2.53;;
21330;SDS011;10824;51.632;4.950;2023-07-28T10:03:07;5.97;;;2.55;;
21330;SDS011;10824;51.632;4.950;2023-07-28T10:05:36;4.97;;;2.25;;
21330;SDS011;10824;51.632;4.950;2023-07-28T10:08:04;2.80;;;2.38;;
21330;SDS011;10824;51.632;4.950;2023-07-28T10:10:32;4.18;;;2.35;;
21330;SDS011;10824;51.632;4.950;2023-07-28T10:12:59;2.35;;;2.10;;
21330;SDS011;10824;51.632;4.950;2023-07-28T10:15:30;3.30;;;2.05;;
21330;SDS011;10824;51.632;4.950;2023-07-28T10:18:00;4.70;;;3.45;;
21330;SDS011;10824;51.632;4.950;2023-07-28T10:20:28;4.30;;;2.15;;
21330;SDS011;10824;51.632;4.950;2023-07-28T10:23:06;2.63;;;1.70;;
21330;SDS011;10824;51.632;4.950;2023-07-28T10:25:40;2.95;;;1.67;;
21330;SDS011;10824;51.632;4.950;2023-07-28T10:28:42;3.47;;;1.88;;
21330;SDS011;10824;51.632;4.950;2023-07-28T10:31:08;5.80;;;2.63;;
21330;SDS011;10824;51.632;4.950;2023-07-28T10:33:47;3.72;;;1.70;;
21330;SDS011;10824;51.632;4.950;2023-07-28T10:38:42;1.90;;;1.60;;
21330;SDS011;10824;51.632;4.950;2023-07-28T10:41:16;2.40;;;1.52;;
21330;SDS011;10824;51.632;4.950;2023-07-28T10:43:45;2.88;;;1.73;;
21330;SDS011;10824;51.632;4.950;2023-07-28T10:46:16;4.75;;;2.40;;
21330;SDS011;10824;51.632;4.950;2023-07-28T10:48:45;2.38;;;1.70;;
21330;SDS011;10824;51.632;4.950;2023-07-28T10:51:21;2.08;;;1.35;;
21330;SDS011;10824;51.632;4.950;2023-07-28T10:53:55;2.08;;;1.40;;
21330;SDS011;10824;51.632;4.950;2023-07-28T10:56:24;3.72;;;1.80;;
21330;SDS011;10824;51.632;4.950;2023-07-28T10:59:04;2.92;;;1.50;;
21330;SDS011;10824;51.632;4.950;2023-07-28T11:01:33;2.43;;;1.30;;
21330;SDS011;10824;51.632;4.950;2023-07-28T11:06:41;3.47;;;1.77;;
21330;SDS011;10824;51.632;4.950;2023-07-28T11:09:10;3.70;;;2.00;;
21330;SDS011;10824;51.632;4.950;2023-07-28T11:11:38;3.85;;;2.30;;
21330;SDS011;10824;51.632;4.950;2023-07-28T11:14:09;4.97;;;2.47;;
21330;SDS011;10824;51.632;4.950;2023-07-28T11:16:41;3.95;;;1.73;;
21330;SDS011;10824;51.632;4.950;2023-07-28T11:19:09;4.93;;;2.38;;
21330;SDS011;10824;51.632;4.950;2023-07-28T11:21:38;3.97;;;2.47;;
21330;SDS011;10824;51.632;4.950;2023-07-28T11:24:08;4.30;;;2.95;;
21330;SDS011;10824;51.632;4.950;2023-07-28T11:26:37;4.78;;;2.38;;
21330;SDS011;10824;51.632;4.950;2023-07-28T11:29:06;6.28;;;2.85;;
21330;SDS011;10824;51.632;4.950;2023-07-28T11:31:34;3.67;;;2.58;;
21330;SDS011;10824;51.632;4.950;2023-07-28T11:34:01;4.43;;;2.30;;
21330;SDS011;10824;51.632;4.950;2023-07-28T11:36:29;3.50;;;2.15;;
21330;SDS011;10824;51.632;4.950;2023-07-28T11:38:58;3.28;;;1.95;;
21330;SDS011;10824;51.632;4.950;2023-07-28T11:41:26;3.83;;;2.25;;
21330;SDS011;10824;51.632;4.950;2023-07-28T11:43:55;4.35;;;2.13;;
21330;SDS011;10824;51.632;4.950;2023-07-28T11:49:22;6.07;;;2.17;;
21330;SDS011;10824;51.632;4.950;2023-07-28T11:51:53;2.55;;;1.73;;
21330;SDS011;10824;51.632;4.950;2023-07-28T11:54:21;3.63;;;1.75;;
21330;SDS011;10824;51.632;4.950;2023-07-28T11:56:50;2.58;;;1.52;;
21330;SDS011;10824;51.632;4.950;2023-07-28T11:59:21;3.90;;;2.10;;
21330;SDS011;10824;51.632;4.950;2023-07-28T12:01:52;3.55;;;1.42;;
21330;SDS011;10824;51.632;4.950;2023-07-28T12:04:30;2.25;;;1.48;;
21330;SDS011;10824;51.632;4.950;2023-07-28T12:07:08;2.30;;;1.30;;
21330;SDS011;10824;51.632;4.950;2023-07-28T12:09:47;1.80;;;1.10;;
21330;SDS011;10824;51.632;4.950;2023-07-28T12:12:30;2.85;;;1.38;;
21330;SDS011;10824;51.632;4.950;2023-07-28T12:15:18;5.18;;;1.70;;
21330;SDS011;10824;51.632;4.950;2023-07-28T12:18:12;7.45;;;2.78;;
21330;SDS011;10824;51.632;4.950;2023-07-28T12:20:45;6.53;;;2.63;;
21330;SDS011;10824;51.632;4.950;2023-07-28T12:23:17;3.45;;;2.00;;
21330;SDS011;10824;51.632;4.950;2023-07-28T12:25:51;5.28;;;2.47;;
21330;SDS011;10824;51.632;4.950;2023-07-28T12:28:22;5.28;;;3.03;;
21330;SDS011;10824;51.632;4.950;2023-07-28T12:30:49;6.18;;;3.28;;
21330;SDS011;10824;51.632;4.950;2023-07-28T12:33:18;7.30;;;3.70;;
21330;SDS011;10824;51.632;4.950;2023-07-28T12:35:48;4.13;;;2.90;;
21330;SDS011;10824;51.632;4.950;2023-07-28T12:38:17;7.03;;;3.47;;
21330;SDS011;10824;51.632;4.950;2023-07-28T12:40:47;8.63;;;3.70;;
21330;SDS011;10824;51.632;4.950;2023-07-28T12:43:17;9.18;;;3.92;;
21330;SDS011;10824;51.632;4.950;2023-07-28T12:45:47;13.57;;;4.00;;
21330;SDS011;10824;51.632;4.950;2023-07-28T12:48:17;4.95;;;3.33;;
21330;SDS011;10824;51.632;4.950;2023-07-28T12:50:47;7.57;;;4.18;;
21330;SDS011;10824;51.632;4.950;2023-07-28T12:53:15;5.85;;;3.30;;
21330;SDS011;10824;51.632;4.950;2023-07-28T12:55:49;7.18;;;3.55;;
21330;SDS011;10824;51.632;4.950;2023-07-28T12:58:19;11.18;;;4.53;;
21330;SDS011;10824;51.632;4.950;2023-07-28T13:00:49;7.78;;;3.92;;
21330;SDS011;10824;51.632;4.950;2023-07-28T13:03:21;5.82;;;3.35;;
21330;SDS011;10824;51.632;4.950;2023-07-28T13:05:48;6.55;;;3.22;;
21330;SDS011;10824;51.632;4.950;2023-07-28T13:08:15;7.63;;;3.72;;
21330;SDS011;10824;51.632;4.950;2023-07-28T13:10:43;9.27;;;4.32;;
21330;SDS011;10824;51.632;4.950;2023-07-28T13:13:13;9.65;;;4.05;;
21330;SDS011;10824;51.632;4.950;2023-07-28T13:15:40;9.35;;;5.13;;
21330;SDS011;10824;51.632;4.950;2023-07-28T13:18:08;6.97;;;4.25;;
21330;SDS011;10824;51.632;4.950;2023-07-28T13:20:37;12.65;;;6.07;;
21330;SDS011;10824;51.632;4.950;2023-07-28T13:23:04;7.47;;;4.47;;
21330;SDS011;10824;51.632;4.950;2023-07-28T13:25:31;9.55;;;5.20;;
21330;SDS011;10824;51.632;4.950;2023-07-28T13:27:58;11.38;;;6.30;;
21330;SDS011;10824;51.632;4.950;2023-07-28T13:30:25;10.38;;;6.13;;
21330;SDS011;10824;51.632;4.950;2023-07-28T13:32:55;11.48;;;5.78;;
21330;SDS011;10824;51.632;4.950;2023-07-28T13:35:23;11.40;;;5.68;;
21330;SDS011;10824;51.632;4.950;2023-07-28T13:37:55;9.15;;;4.97;;
21330;SDS011;10824;51.632;4.950;2023-07-28T13:44:48;11.93;;;5.55;;
21330;SDS011;10824;51.632;4.950;2023-07-28T13:50:38;9.27;;;4.93;;
21330;SDS011;10824;51.632;4.950;2023-07-28T13:53:05;5.93;;;3.53;;
21330;SDS011;10824;51.632;4.950;2023-07-28T13:55:36;6.35;;;3.38;;
21330;SDS011;10824;51.632;4.950;2023-07-28T13:58:06;5.70;;;2.95;;
21330;SDS011;10824;51.632;4.950;2023-07-28T14:00:33;7.22;;;3.08;;
21330;SDS011;10824;51.632;4.950;2023-07-28T14:03:00;6.28;;;3.40;;
21330;SDS011;10824;51.632;4.950;2023-07-28T14:05:28;6.93;;;3.78;;
21330;SDS011;10824;51.632;4.950;2023-07-28T14:07:55;8.60;;;3.47;;
21330;SDS011;10824;51.632;4.950;2023-07-28T14:10:22;7.78;;;4.32;;
21330;SDS011;10824;51.632;4.950;2023-07-28T14:12:52;11.55;;;3.60;;
21330;SDS011;10824;51.632;4.950;2023-07-28T14:15:19;9.07;;;3.65;;
21330;SDS011;10824;51.632;4.950;2023-07-28T14:17:46;5.38;;;3.20;;
21330;SDS011;10824;51.632;4.950;2023-07-28T14:20:20;3.90;;;2.75;;
21330;SDS011;10824;51.632;4.950;2023-07-28T14:26:48;5.65;;;2.65;;
21330;SDS011;10824;51.632;4.950;2023-07-28T14:29:15;6.47;;;4.13;;
21330;SDS011;10824;51.632;4.950;2023-07-28T14:31:42;6.20;;;3.55;;
21330;SDS011;10824;51.632;4.950;2023-07-28T14:34:10;3.80;;;2.63;;
21330;SDS011;10824;51.632;4.950;2023-07-28T14:36:38;4.47;;;2.70;;
21330;SDS011;10824;51.632;4.950;2023-07-28T14:39:05;4.00;;;2.33;;
21330;SDS011;10824;51.632;4.950;2023-07-28T14:41:32;3.63;;;1.85;;
21330;SDS011;10824;51.632;4.950;2023-07-28T14:44:00;3.40;;;2.20;;
21330;SDS011;10824;51.632;4.950;2023-07-28T14:46:30;4.35;;;1.73;;
21330;SDS011;10824;51.632;4.950;2023-07-28T14:48:57;2.65;;;1.95;;
21330;SDS011;10824;51.632;4.950;2023-07-28T14:51:24;4.38;;;2.40;;
21330;SDS011;10824;51.632;4.950;2023-07-28T14:53:51;4.85;;;2.70;;
21330;SDS011;10824;51.632;4.950;2023-07-28T14:56:19;4.70;;;3.05;;
21330;SDS011;10824;51.632;4.950;2023-07-28T14:58:51;3.85;;;2.55;;
21330;SDS011;10824;51.632;4.950;2023-07-28T15:01:18;7.07;;;2.65;;
21330;SDS011;10824;51.632;4.950;2023-07-28T15:03:45;4.70;;;3.40;;
21330;SDS011;10824;51.632;4.950;2023-07-28T15:06:13;3.45;;;2.50;;
21330;SDS011;10824;51.632;4.950;2023-07-28T15:08:40;3.80;;;2.60;;
21330;SDS011;10824;51.632;4.950;2023-07-28T15:11:08;5.57;;;3.30;;
21330;SDS011;10824;51.632;4.950;2023-07-28T15:13:35;5.07;;;2.92;;
21330;SDS011;10824;51.632;4.950;2023-07-28T15:16:02;5.05;;;3.17;;
21330;SDS011;10824;51.632;4.950;2023-07-28T15:18:29;4.13;;;2.55;;
21330;SDS011;10824;51.632;4.950;2023-07-28T15:20:56;4.38;;;2.30;;